createdAt,value
2018-01-12T00:00:24.466Z,13.83
2018-01-12T00:02:51.989Z,17.47
2018-01-12T00:05:20.286Z,22.25
2018-01-12T00:07:48.159Z,14.60
2018-01-12T00:10:15.686Z,15.70
2018-01-12T00:12:43.227Z,15.70
2018-01-12T00:15:10.755Z,19.80
2018-01-12T00:17:38.293Z,15.70
2018-01-12T00:20:05.818Z,13.18
2018-01-12T00:22:35.858Z,16.10
2018-01-12T00:25:04.152Z,17.83
2018-01-12T00:27:32.472Z,17.10
2018-01-12T00:29:59.995Z,14.55
2018-01-12T00:32:27.554Z,14.40
2018-01-12T00:34:55.853Z,11.52
2018-01-12T00:37:23.374Z,12.18
2018-01-12T00:39:50.917Z,12.07
2018-01-12T00:42:18.451Z,16.27
2018-01-12T00:44:45.998Z,14.30
2018-01-12T00:47:13.517Z,11.93
2018-01-12T00:49:41.067Z,14.60
2018-01-12T00:52:08.605Z,9.60
2018-01-12T00:54:36.142Z,14.80
2018-01-12T00:57:03.675Z,15.63
2018-01-12T00:59:32.155Z,15.57
2018-01-12T01:01:59.682Z,15.37
2018-01-12T01:04:27.203Z,12.20
2018-01-12T01:06:54.746Z,22.02
2018-01-12T01:09:23.043Z,32.40
2018-01-12T01:11:50.584Z,39.25
2018-01-12T01:14:18.869Z,21.52
2018-01-12T01:16:47.183Z,42.92
2018-01-12T01:19:14.704Z,39.85
2018-01-12T01:21:43.013Z,30.20
2018-01-12T01:24:10.551Z,35.28
2018-01-12T01:26:38.871Z,44.17
2018-01-12T01:29:06.390Z,22.42
2018-01-12T01:31:34.685Z,89.93
2018-01-12T01:34:02.230Z,42.70
2018-01-12T01:39:21.153Z,23.65
2018-01-12T01:41:48.681Z,25.25
2018-01-12T01:44:16.224Z,23.67
2018-01-12T01:46:44.509Z,18.70
2018-01-12T01:49:12.925Z,14.87
2018-01-12T01:51:40.445Z,15.77
2018-01-12T01:54:08.761Z,24.27
2018-01-12T01:56:36.280Z,24.15
2018-01-12T01:59:04.601Z,25.10
2018-01-12T02:01:32.125Z,18.58
2018-01-12T02:04:00.412Z,23.10
2018-01-12T02:06:27.954Z,16.73
2018-01-12T02:08:55.473Z,18.33
2018-01-12T02:11:23.010Z,17.50
2018-01-12T02:13:50.530Z,20.33
2018-01-12T02:16:18.080Z,22.95
2018-01-12T02:18:45.601Z,22.58
2018-01-12T02:21:13.145Z,28.27
2018-01-12T02:23:40.665Z,17.73
2018-01-12T02:26:08.209Z,22.75
2018-01-12T02:28:36.498Z,24.87
2018-01-12T02:31:04.019Z,20.48
2018-01-12T02:33:31.562Z,15.82
2018-01-12T02:35:59.094Z,16.80
2018-01-12T02:38:27.400Z,16.15
2018-01-12T02:40:54.930Z,21.25
2018-01-12T02:45:57.240Z,52.13
2018-01-12T02:48:25.542Z,19.37
2018-01-12T02:50:53.069Z,16.17
2018-01-12T02:53:20.614Z,26.60
2018-01-12T02:55:48.154Z,22.83
2018-01-12T02:58:15.701Z,20.90
2018-01-12T03:00:43.230Z,36.42
2018-01-12T03:03:10.773Z,22.52
2018-01-12T03:05:39.057Z,20.90
2018-01-12T03:08:07.346Z,29.45
2018-01-12T03:10:34.885Z,26.50
2018-01-12T03:13:02.402Z,19.58
2018-01-12T03:15:29.950Z,25.25
2018-01-12T03:17:57.464Z,16.25
2018-01-12T03:20:25.003Z,12.63
2018-01-12T03:22:52.522Z,13.32
2018-01-12T03:25:20.063Z,17.77
2018-01-12T03:27:48.352Z,16.23
2018-01-12T03:30:15.898Z,16.83
2018-01-12T03:32:44.180Z,14.25
2018-01-12T03:35:12.489Z,22.70
2018-01-12T03:37:40.016Z,24.00
2018-01-12T03:40:07.545Z,27.80
2018-01-12T03:42:35.089Z,28.92
2018-01-12T03:45:02.612Z,21.10
2018-01-12T03:47:30.918Z,17.43
2018-01-12T03:49:58.441Z,17.37
2018-01-12T03:52:26.744Z,16.58
2018-01-12T03:54:54.264Z,22.10
2018-01-12T03:57:21.806Z,16.42
2018-01-12T03:59:49.315Z,18.30
2018-01-12T04:02:17.616Z,14.30
2018-01-12T04:04:45.142Z,64.82
2018-01-12T04:07:13.439Z,52.17
2018-01-12T04:09:41.746Z,15.70
2018-01-12T04:12:09.268Z,20.12
2018-01-12T04:14:37.569Z,15.38
2018-01-12T04:17:05.090Z,18.45
2018-01-12T04:19:32.634Z,21.85
2018-01-12T04:22:00.158Z,22.60
2018-01-12T04:24:27.715Z,32.40
2018-01-12T04:26:55.238Z,18.62
2018-01-12T04:29:22.797Z,24.45
2018-01-12T04:31:50.322Z,22.08
2018-01-12T04:34:17.851Z,13.80
2018-01-12T04:36:45.394Z,19.77
2018-01-12T04:39:13.685Z,12.98
2018-01-12T04:41:41.229Z,18.87
2018-01-12T04:44:09.519Z,12.98
2018-01-12T04:46:37.830Z,13.30
2018-01-12T04:49:05.357Z,15.10
2018-01-12T04:51:33.666Z,15.23
2018-01-12T04:54:01.191Z,11.75
2018-01-12T04:56:29.521Z,12.13
2018-01-12T04:58:57.054Z,11.43
2018-01-12T05:01:24.608Z,13.07
2018-01-12T05:03:52.928Z,15.70
2018-01-12T05:06:20.475Z,25.15
2018-01-12T05:08:48.012Z,23.50
2018-01-12T05:11:15.565Z,27.60
2018-01-12T05:13:43.883Z,30.87
2018-01-12T05:16:11.409Z,15.43
2018-01-12T05:18:39.730Z,14.23
2018-01-12T05:21:07.250Z,14.60
2018-01-12T05:23:34.794Z,14.43
2018-01-12T05:26:03.094Z,14.50
2018-01-12T05:28:30.638Z,14.97
2018-01-12T05:30:58.937Z,13.83
2018-01-12T05:33:26.473Z,15.67
2018-01-12T05:35:54.765Z,13.77
2018-01-12T05:38:23.075Z,12.30
2018-01-12T05:40:50.605Z,10.70
2018-01-12T05:43:18.920Z,13.50
2018-01-12T05:45:46.446Z,12.77
2018-01-12T05:48:14.738Z,13.40
2018-01-12T05:50:43.037Z,11.50
2018-01-12T05:53:10.582Z,12.30
2018-01-12T05:55:38.150Z,15.23
2018-01-12T05:58:05.670Z,11.73
2018-01-12T06:00:33.978Z,21.02
2018-01-12T06:03:13.486Z,14.57
2018-01-12T06:05:52.970Z,15.95
2018-01-12T06:08:20.503Z,14.43
2018-01-12T06:10:48.827Z,11.33
2018-01-12T06:13:16.346Z,10.37
2018-01-12T06:15:44.646Z,19.20
2018-01-12T06:18:12.173Z,10.98
2018-01-12T06:20:39.717Z,9.17
2018-01-12T06:23:07.284Z,10.63
2018-01-12T06:25:34.786Z,9.03
2018-01-12T06:28:02.325Z,13.40
2018-01-12T06:30:30.623Z,12.67
2018-01-12T06:32:58.157Z,13.47
2018-01-12T06:35:26.443Z,17.27
2018-01-12T06:37:54.751Z,11.37
2018-01-12T06:40:22.273Z,11.15
2018-01-12T06:42:50.582Z,13.87
2018-01-12T06:45:18.098Z,13.70
2018-01-12T06:47:45.639Z,19.07
2018-01-12T06:50:13.157Z,15.53
2018-01-12T06:52:40.710Z,21.50
2018-01-12T06:55:08.242Z,19.33
2018-01-12T06:57:35.762Z,14.17
2018-01-12T07:00:03.306Z,12.87
2018-01-12T07:02:30.877Z,18.33
2018-01-12T07:04:58.425Z,15.90
2018-01-12T07:07:25.942Z,18.53
2018-01-12T07:09:53.772Z,15.65
2018-01-12T07:12:22.577Z,16.73
2018-01-12T07:14:50.479Z,19.67
2018-01-12T07:17:19.111Z,16.80
2018-01-12T07:19:46.998Z,14.40
2018-01-12T07:22:26.510Z,18.62
2018-01-12T07:24:54.056Z,11.67
2018-01-12T07:29:55.541Z,17.58
2018-01-12T07:32:23.088Z,17.87
2018-01-12T07:34:51.370Z,16.97
2018-01-12T07:37:18.905Z,19.50
2018-01-12T07:39:46.419Z,19.03
2018-01-12T07:42:14.016Z,17.05
2018-01-12T07:44:41.517Z,13.30
2018-01-12T07:47:09.065Z,12.87
2018-01-12T07:49:36.588Z,12.30
2018-01-12T07:52:04.133Z,17.77
2018-01-12T07:54:31.655Z,18.20
2018-01-12T07:56:59.198Z,13.70
2018-01-12T07:59:27.479Z,19.93
2018-01-12T08:02:00.890Z,15.90
2018-01-12T08:04:28.414Z,17.10
2018-01-12T08:06:56.741Z,17.30
2018-01-12T08:09:24.281Z,16.60
2018-01-12T08:11:51.801Z,12.93
2018-01-12T08:14:20.116Z,15.60
2018-01-12T08:16:47.646Z,12.70
2018-01-12T08:19:15.187Z,10.60
2018-01-12T08:21:42.697Z,15.77
2018-01-12T08:24:10.241Z,12.47
2018-01-12T08:26:38.529Z,11.70
2018-01-12T08:29:06.825Z,12.10
2018-01-12T08:31:34.393Z,13.23
2018-01-12T08:34:01.933Z,11.17
2018-01-12T08:36:29.442Z,8.13
2018-01-12T08:38:56.957Z,12.17
2018-01-12T08:41:24.498Z,8.48
2018-01-12T08:43:52.783Z,16.23
2018-01-12T08:46:21.084Z,12.43
2018-01-12T08:48:48.603Z,14.03
2018-01-12T08:51:16.173Z,15.67
2018-01-12T08:53:44.456Z,12.77
2018-01-12T08:56:12.759Z,7.90
2018-01-12T08:58:40.271Z,7.87
2018-01-12T09:01:07.801Z,7.73
2018-01-12T09:03:35.317Z,10.40
2018-01-12T09:06:02.852Z,11.60
2018-01-12T09:08:30.370Z,10.13
2018-01-12T09:10:57.885Z,11.37
2018-01-12T09:13:37.981Z,6.37
2018-01-12T09:16:06.307Z,9.20
2018-01-12T09:18:46.487Z,8.60
2018-01-12T09:21:25.553Z,7.93
2018-01-12T09:23:54.557Z,12.80
2018-01-12T09:26:22.841Z,10.33
2018-01-12T09:28:50.374Z,10.77
2018-01-12T09:31:17.890Z,6.83
2018-01-12T09:33:48.108Z,6.70
2018-01-12T09:36:16.393Z,9.70
2018-01-12T09:38:52.652Z,7.23
2018-01-12T09:41:20.929Z,7.27
2018-01-12T09:43:49.233Z,9.07
2018-01-12T09:46:16.756Z,9.70
2018-01-12T09:48:51.069Z,8.63
2018-01-12T09:51:18.572Z,7.77
2018-01-12T09:53:46.108Z,6.57
2018-01-12T09:56:14.387Z,7.43
2018-01-12T09:58:45.525Z,10.83
2018-01-12T10:01:21.497Z,8.93
2018-01-12T10:03:49.776Z,8.00
2018-01-12T10:06:17.308Z,11.60
2018-01-12T10:08:44.821Z,10.60
2018-01-12T10:11:12.356Z,9.60
2018-01-12T10:13:39.869Z,8.90
2018-01-12T10:16:07.401Z,9.03
2018-01-12T10:18:35.813Z,7.53
2018-01-12T10:21:15.201Z,11.00
2018-01-12T10:23:42.725Z,9.97
2018-01-12T10:26:10.264Z,12.20
2018-01-12T10:28:49.586Z,12.53
2018-01-12T10:31:17.131Z,19.97
2018-01-12T10:36:55.057Z,15.27
2018-01-12T10:39:22.572Z,13.00
2018-01-12T10:42:02.864Z,20.77
2018-01-12T10:44:30.386Z,25.00
2018-01-12T10:47:14.741Z,26.63
2018-01-12T10:49:54.170Z,22.63
2018-01-12T10:52:21.705Z,17.73
2018-01-12T10:54:49.226Z,23.20
2018-01-12T10:57:16.761Z,19.67
2018-01-12T10:59:44.281Z,19.67
2018-01-12T11:02:11.829Z,17.60
2018-01-12T11:04:39.359Z,18.17
2018-01-12T11:07:07.769Z,20.10
2018-01-12T11:09:35.282Z,17.37
2018-01-12T11:12:02.801Z,18.53
2018-01-12T11:14:30.347Z,19.57
2018-01-12T11:16:59.914Z,24.07
2018-01-12T11:19:28.214Z,19.60
2018-01-12T11:21:55.729Z,17.07
2018-01-12T11:24:23.262Z,13.07
2018-01-12T11:26:50.811Z,18.33
2018-01-12T11:29:18.343Z,17.20
2018-01-12T11:31:46.621Z,13.73
2018-01-12T11:34:14.926Z,18.50
2018-01-12T11:36:42.442Z,15.77
2018-01-12T11:39:09.982Z,19.50
2018-01-12T11:41:38.266Z,21.40
2018-01-12T11:44:05.786Z,21.03
2018-01-12T11:46:33.317Z,21.10
2018-01-12T11:49:00.832Z,17.60
2018-01-12T11:51:28.365Z,22.97
2018-01-12T11:53:55.881Z,19.43
2018-01-12T11:56:24.189Z,25.17
2018-01-12T11:58:51.711Z,17.50
2018-01-12T12:01:19.241Z,20.70
2018-01-12T12:03:46.756Z,24.37
2018-01-12T12:06:14.337Z,23.77
2018-01-12T12:08:41.863Z,21.37
2018-01-12T12:11:10.146Z,24.03
2018-01-12T12:13:38.450Z,21.93
2018-01-12T12:16:06.009Z,22.53
2018-01-12T12:18:34.289Z,22.90
2018-01-12T12:21:01.805Z,31.10
2018-01-12T12:23:29.337Z,24.73
2018-01-12T12:25:56.853Z,26.87
2018-01-12T12:28:24.444Z,30.70
2018-01-12T12:30:51.965Z,35.90
2018-01-12T12:33:19.486Z,26.40
2018-01-12T12:35:47.808Z,24.10
2018-01-12T12:38:15.335Z,28.60
2018-01-12T12:40:42.870Z,27.87
2018-01-12T12:43:10.385Z,36.63
2018-01-12T12:45:37.921Z,32.97
2018-01-12T12:48:05.442Z,32.97
2018-01-12T12:50:32.979Z,21.97
2018-01-12T12:53:00.505Z,30.00
2018-01-12T12:55:28.815Z,26.20
2018-01-12T12:57:56.333Z,30.50
2018-01-12T13:00:23.882Z,32.30
2018-01-12T13:02:51.404Z,30.50
2018-01-12T13:05:18.937Z,35.87
2018-01-12T13:07:46.477Z,28.83
2018-01-12T13:10:14.769Z,35.60
2018-01-12T13:12:43.074Z,34.93
2018-01-12T13:15:10.604Z,39.50
2018-01-12T13:17:38.156Z,31.47
2018-01-12T13:20:06.442Z,33.33
2018-01-12T13:22:34.865Z,28.60
2018-01-12T13:25:02.384Z,32.67
2018-01-12T13:27:30.676Z,32.17
2018-01-12T13:29:58.214Z,29.40
2018-01-12T13:32:26.496Z,37.20
2018-01-12T13:34:54.817Z,35.70
2018-01-12T13:37:22.330Z,35.83
2018-01-12T13:39:50.647Z,37.47
2018-01-12T13:42:18.206Z,36.23
2018-01-12T13:44:45.749Z,32.37
2018-01-12T13:47:13.274Z,31.33
2018-01-12T13:49:40.817Z,29.37
2018-01-12T13:52:08.333Z,38.83
2018-01-12T13:54:35.862Z,31.20
2018-01-12T13:57:03.409Z,31.33
2018-01-12T13:59:31.038Z,43.93
2018-01-12T14:01:58.575Z,34.70
2018-01-12T14:04:26.098Z,24.93
2018-01-12T14:06:53.642Z,31.17
2018-01-12T14:09:21.165Z,36.97
2018-01-12T14:11:48.726Z,39.20
2018-01-12T14:14:16.248Z,29.43
2018-01-12T14:16:44.558Z,35.87
2018-01-12T14:19:12.128Z,40.73
2018-01-12T14:21:39.657Z,41.03
2018-01-12T14:24:07.961Z,41.20
2018-01-12T14:26:35.528Z,42.93
2018-01-12T14:29:03.073Z,42.80
2018-01-12T14:31:30.596Z,41.97
2018-01-12T14:33:58.129Z,31.00
2018-01-12T14:36:25.654Z,33.50
2018-01-12T14:38:53.208Z,39.50
2018-01-12T14:41:20.738Z,37.30
2018-01-12T14:43:48.279Z,31.80
2018-01-12T14:46:15.807Z,46.70
2018-01-12T14:48:43.351Z,35.50
2018-01-12T14:51:10.877Z,33.23
2018-01-12T14:53:38.422Z,39.57
2018-01-12T14:56:05.936Z,24.73
2018-01-12T14:58:33.453Z,30.90
2018-01-12T15:01:00.998Z,33.27
2018-01-12T15:03:28.513Z,29.40
2018-01-12T15:05:56.050Z,25.57
2018-01-12T15:08:24.333Z,28.90
2018-01-12T15:10:52.630Z,30.63
2018-01-12T15:13:20.154Z,26.40
2018-01-12T15:15:47.693Z,34.97
2018-01-12T15:18:15.210Z,28.23
2018-01-12T15:20:42.754Z,24.73
2018-01-12T15:23:11.032Z,23.40
2018-01-12T15:25:39.316Z,35.40
2018-01-12T15:28:06.853Z,25.73
2018-01-12T15:30:34.366Z,22.20
2018-01-12T15:33:01.901Z,32.87
2018-01-12T15:35:29.426Z,32.03
2018-01-12T15:37:56.964Z,31.07
2018-01-12T15:40:24.477Z,33.23
2018-01-12T15:42:52.013Z,34.00
2018-01-12T15:45:19.533Z,36.93
2018-01-12T15:47:47.052Z,38.70
2018-01-12T15:50:15.362Z,45.93
2018-01-12T15:52:42.878Z,38.73
2018-01-12T15:55:11.177Z,44.47
2018-01-12T15:57:38.700Z,49.50
2018-01-12T16:00:06.238Z,41.63
2018-01-12T16:02:33.757Z,48.77
2018-01-12T16:05:01.302Z,41.03
2018-01-12T16:07:29.593Z,48.43
2018-01-12T16:09:57.137Z,46.67
2018-01-12T16:12:25.422Z,47.43
2018-01-12T16:14:53.728Z,44.47
2018-01-12T16:17:21.254Z,37.83
2018-01-12T16:19:49.542Z,40.83
2018-01-12T16:22:17.082Z,42.25
2018-01-12T16:24:44.625Z,47.23
2018-01-12T16:27:12.165Z,42.93
2018-01-12T16:29:39.682Z,49.87
2018-01-12T16:32:07.985Z,44.57
2018-01-12T16:34:35.506Z,32.63
2018-01-12T16:37:03.813Z,42.07
2018-01-12T16:39:31.332Z,41.83
2018-01-12T16:41:58.870Z,28.53
2018-01-12T16:44:26.385Z,29.33
2018-01-12T16:46:53.925Z,34.70
2018-01-12T16:49:22.217Z,33.80
2018-01-12T16:51:49.766Z,43.17
2018-01-12T16:54:18.055Z,31.77
2018-01-12T16:56:46.341Z,35.70
2018-01-12T16:59:13.882Z,28.43
2018-01-12T17:01:42.164Z,31.90
2018-01-12T17:04:10.473Z,34.33
2018-01-12T17:06:37.997Z,32.03
2018-01-12T17:09:06.305Z,31.23
2018-01-12T17:11:33.829Z,30.47
2018-01-12T17:14:01.366Z,40.47
2018-01-12T17:16:28.893Z,38.33
2018-01-12T17:18:56.432Z,31.43
2018-01-12T17:21:24.723Z,28.80
2018-01-12T17:23:52.267Z,26.10
2018-01-12T17:26:20.549Z,27.70
2018-01-12T17:28:48.855Z,24.63
2018-01-12T17:31:16.378Z,27.77
2018-01-12T17:33:44.690Z,22.33
2018-01-12T17:36:12.209Z,22.07
2018-01-12T17:38:39.754Z,25.37
2018-01-12T17:41:07.270Z,30.30
2018-01-12T17:43:34.794Z,25.57
2018-01-12T17:46:02.335Z,26.27
2018-01-12T17:48:29.851Z,28.70
2018-01-12T17:50:57.432Z,22.23
2018-01-12T17:53:24.950Z,31.80
2018-01-12T17:55:52.487Z,26.97
2018-01-12T17:58:20.009Z,22.33
2018-01-12T18:00:47.546Z,23.20
2018-01-12T18:03:15.834Z,27.20
2018-01-12T18:05:44.137Z,27.93
2018-01-12T18:08:11.681Z,28.43
2018-01-12T18:10:39.206Z,21.30
2018-01-12T18:13:06.751Z,24.80
2018-01-12T18:15:34.277Z,42.97
2018-01-12T18:18:01.817Z,27.83
2018-01-12T18:20:30.106Z,22.13
2018-01-12T18:22:57.650Z,42.83
2018-01-12T18:25:25.948Z,29.43
2018-01-12T18:27:53.514Z,25.90
2018-01-12T18:30:21.029Z,33.97
2018-01-12T18:32:48.572Z,28.70
2018-01-12T18:35:16.092Z,19.73
2018-01-12T18:37:43.634Z,29.53
2018-01-12T18:40:11.921Z,31.17
2018-01-12T18:42:39.457Z,34.30
2018-01-12T18:45:07.741Z,34.77
2018-01-12T18:47:36.050Z,33.10
2018-01-12T18:50:03.570Z,38.80
2018-01-12T18:52:31.084Z,30.33
2018-01-12T18:54:58.622Z,28.17
2018-01-12T18:57:26.147Z,30.83
2018-01-12T18:59:53.680Z,36.13
2018-01-12T19:02:21.201Z,35.37
2018-01-12T19:04:48.745Z,39.93
2018-01-12T19:07:17.029Z,39.23
2018-01-12T19:09:45.330Z,26.80
2018-01-12T19:12:12.850Z,30.53
2018-01-12T19:14:41.168Z,41.13
2018-01-12T19:17:08.693Z,26.37
2018-01-12T19:19:37.002Z,25.83
2018-01-12T19:22:04.574Z,24.70
2018-01-12T19:24:32.113Z,32.43
2018-01-12T19:26:59.633Z,36.70
2018-01-12T19:29:27.174Z,25.53
2018-01-12T19:31:54.688Z,33.13
2018-01-12T19:34:22.973Z,34.63
2018-01-12T19:36:50.513Z,31.70
2018-01-12T19:39:18.793Z,26.80
2018-01-12T19:41:47.138Z,33.20
2018-01-12T19:44:14.700Z,35.40
2018-01-12T19:46:42.242Z,40.23
2018-01-12T19:49:09.763Z,41.90
2018-01-12T19:51:38.073Z,45.70
2018-01-12T19:54:05.598Z,39.13
2018-01-12T19:56:34.022Z,33.33
2018-01-12T19:59:01.764Z,29.07
2018-01-12T20:01:29.302Z,38.60
2018-01-12T20:03:57.602Z,36.57
2018-01-12T20:06:25.125Z,29.03
2018-01-12T20:08:52.662Z,26.70
2018-01-12T20:11:20.186Z,29.47
2018-01-12T20:13:47.729Z,25.87
2018-01-12T20:16:16.020Z,25.60
2018-01-12T20:18:43.601Z,29.10
2018-01-12T20:21:11.147Z,31.47
2018-01-12T20:23:38.670Z,30.83
2018-01-12T20:26:06.294Z,37.83
2018-01-12T20:28:33.809Z,39.77
2018-01-12T20:31:02.175Z,38.77
2018-01-12T20:33:29.696Z,33.53
2018-01-12T20:35:57.246Z,41.17
2018-01-12T20:38:24.774Z,34.00
2018-01-12T20:40:53.125Z,48.63
2018-01-12T20:43:20.642Z,42.43
2018-01-12T20:45:48.180Z,40.97
2018-01-12T20:48:16.507Z,44.10
2018-01-12T20:50:44.110Z,41.10
2018-01-12T20:53:11.628Z,45.53
2018-01-12T20:55:39.158Z,40.10
2018-01-12T20:58:06.706Z,35.75
2018-01-12T21:00:34.994Z,45.13
2018-01-12T21:03:02.537Z,33.07
2018-01-12T21:05:30.863Z,42.33
2018-01-12T21:07:58.441Z,42.77
2018-01-12T21:10:26.781Z,43.10
2018-01-12T21:12:54.330Z,41.17
2018-01-12T21:15:22.619Z,49.50
2018-01-12T21:17:50.137Z,43.47
2018-01-12T21:20:17.715Z,45.10
2018-01-12T21:22:46.002Z,45.90
2018-01-12T21:25:14.301Z,43.40
2018-01-12T21:27:41.817Z,44.97
2018-01-12T21:30:09.358Z,47.80
2018-01-12T21:32:36.902Z,47.77
2018-01-12T21:35:04.460Z,52.03
2018-01-12T21:37:32.020Z,36.83
2018-01-12T21:42:33.594Z,50.17
2018-01-12T21:45:01.139Z,48.70
2018-01-12T21:47:29.469Z,45.70
2018-01-12T21:49:56.989Z,40.07
2018-01-12T21:52:24.537Z,40.47
2018-01-12T21:54:52.060Z,34.10
2018-01-12T21:57:19.609Z,39.87
2018-01-12T21:59:47.129Z,48.53
2018-01-12T22:02:14.710Z,39.43
2018-01-12T22:04:42.236Z,37.47
2018-01-12T22:07:10.542Z,38.23
2018-01-12T22:09:38.060Z,37.00
2018-01-12T22:12:06.365Z,33.00
2018-01-12T22:14:33.884Z,32.67
2018-01-12T22:17:01.466Z,38.47
2018-01-12T22:19:29.749Z,32.90
2018-01-12T22:21:57.292Z,43.30
2018-01-12T22:24:25.622Z,41.40
2018-01-12T22:26:53.143Z,43.50
2018-01-12T22:29:21.446Z,42.30
2018-01-12T22:31:49.555Z,44.90
2018-01-12T22:34:17.458Z,43.03
2018-01-12T22:36:45.062Z,45.53
2018-01-12T22:39:12.602Z,36.93
2018-01-12T22:41:40.928Z,37.20
2018-01-12T22:44:08.474Z,42.93
2018-01-12T22:46:35.996Z,41.90
2018-01-12T22:49:04.301Z,42.60
2018-01-12T22:51:31.821Z,42.13
2018-01-12T22:53:59.341Z,31.40
2018-01-12T22:56:26.887Z,43.23
2018-01-12T22:58:54.402Z,37.13
2018-01-12T23:01:21.946Z,42.57
2018-01-12T23:03:49.469Z,35.37
2018-01-12T23:06:17.009Z,34.53
2018-01-12T23:08:45.293Z,28.20
2018-01-12T23:11:12.876Z,31.33
2018-01-12T23:13:40.400Z,42.67
2018-01-12T23:16:08.700Z,32.00
2018-01-12T23:18:36.221Z,31.00
2018-01-12T23:21:04.571Z,32.47
2018-01-12T23:23:32.098Z,25.60
2018-01-12T23:25:59.626Z,21.70
2018-01-12T23:28:28.675Z,27.70
2018-01-12T23:30:56.197Z,37.93
2018-01-12T23:33:24.503Z,35.03
2018-01-12T23:35:52.061Z,22.20
2018-01-12T23:38:19.654Z,34.10
2018-01-12T23:40:47.164Z,38.00
2018-01-12T23:43:15.473Z,24.30
2018-01-12T23:45:42.999Z,33.33
2018-01-12T23:48:11.302Z,23.67
2018-01-12T23:50:38.822Z,27.90
2018-01-12T23:53:06.438Z,24.30
2018-01-12T23:55:33.997Z,33.70
2018-01-12T23:58:01.528Z,40.00
